Time;durP1;ratioP1;P1;durP2;ratioP2;P2;SDS_P1;SDS_P2;PMS_P1;PMS_P2;Temp;Humidity;BMP_temperature;BMP_pressure;BME280_temperature;BME280_humidity;BME280_pressure;Samples;Min_cycle;Max_cycle;Signal;HPM_P1;HPM_P2
2021/05/12 00:01:04;;;;;;;20.63;12.87;;;13.40;99.90;;;;;;4159090;28;20203;-79
2021/05/12 00:03:05;;;;;;;20.10;11.83;;;13.40;99.90;;;;;;4162868;28;20512;-79
2021/05/12 00:05:09;;;;;;;21.03;12.83;;;13.40;99.90;;;;;;4164658;28;20214;-78
2021/05/12 00:07:11;;;;;;;19.63;12.47;;;13.40;99.90;;;;;;4163703;28;20243;-79
2021/05/12 00:09:12;;;;;;;19.83;12.23;;;13.40;99.90;;;;;;4167504;28;20208;-79
2021/05/12 00:11:13;;;;;;;21.50;11.50;;;13.40;99.90;;;;;;4162926;28;20231;-78
2021/05/12 00:13:14;;;;;;;22.40;12.27;;;13.40;99.90;;;;;;4162445;28;20227;-79
2021/05/12 00:15:19;;;;;;;18.83;11.53;;;13.40;99.90;;;;;;4165052;28;20213;-79
2021/05/12 00:17:21;;;;;;;17.50;11.10;;;13.40;99.90;;;;;;4165405;28;20577;-79
2021/05/12 00:19:22;;;;;;;18.87;10.43;;;13.40;99.90;;;;;;4164042;28;20228;-79
2021/05/12 00:21:28;;;;;;;15.80;11.00;;;13.40;99.90;;;;;;4162839;28;20288;-79
2021/05/12 00:23:41;;;;;;;15.63;10.07;;;13.40;99.90;;;;;;4170783;28;20206;-79
2021/05/12 00:25:42;;;;;;;16.20;10.13;;;13.40;99.90;;;;;;4157929;28;20445;-79
2021/05/12 00:27:44;;;;;;;15.20;9.77;;;13.40;99.90;;;;;;4160336;28;20317;-79
2021/05/12 00:29:45;;;;;;;13.93;9.20;;;13.40;99.90;;;;;;4169784;28;20215;-79
2021/05/12 00:31:46;;;;;;;18.47;9.77;;;13.40;99.90;;;;;;4167254;28;20700;-79
2021/05/12 00:33:47;;;;;;;18.97;10.37;;;13.40;99.90;;;;;;4160207;28;20215;-79
2021/05/12 00:35:49;;;;;;;16.90;10.30;;;13.40;99.90;;;;;;4157365;28;20689;-79
2021/05/12 00:37:50;;;;;;;17.77;10.50;;;13.50;99.90;;;;;;4148286;28;20223;-79
2021/05/12 00:39:52;;;;;;;20.37;10.63;;;13.50;99.90;;;;;;4162448;28;20317;-79
2021/05/12 00:41:54;;;;;;;14.03;9.03;;;13.50;99.90;;;;;;4184572;23;20265;-75
2021/05/12 00:43:55;;;;;;;14.70;10.00;;;13.50;99.90;;;;;;4170408;28;20255;-75
2021/05/12 00:45:56;;;;;;;15.03;9.37;;;13.50;99.90;;;;;;4167222;28;20199;-75
2021/05/12 00:47:58;;;;;;;14.90;9.50;;;13.40;99.90;;;;;;4175926;28;20678;-75
2021/05/12 00:50:00;;;;;;;14.47;8.93;;;13.40;99.90;;;;;;4179274;28;20218;-75
2021/05/12 00:52:01;;;;;;;16.43;9.77;;;13.50;99.90;;;;;;4161893;28;20231;-74
2021/05/12 00:54:03;;;;;;;14.63;9.33;;;13.50;99.90;;;;;;4161720;28;20216;-75
2021/05/12 00:56:05;;;;;;;16.20;9.70;;;13.50;99.90;;;;;;4162573;28;20668;-75
2021/05/12 00:58:07;;;;;;;13.67;9.13;;;13.50;99.90;;;;;;4161397;28;20261;-73
2021/05/12 01:00:11;;;;;;;16.07;9.87;;;13.50;99.90;;;;;;4158654;28;20246;-73
2021/05/12 01:02:14;;;;;;;17.40;10.43;;;13.50;99.90;;;;;;4155268;28;20223;-74
2021/05/12 01:04:15;;;;;;;16.50;10.77;;;13.50;99.90;;;;;;4154613;28;20627;-72
2021/05/12 01:06:22;;;;;;;16.20;10.30;;;13.50;99.90;;;;;;4157022;28;20234;-72
2021/05/12 01:08:24;;;;;;;16.63;10.53;;;13.50;99.90;;;;;;4157929;28;20216;-75
2021/05/12 01:10:25;;;;;;;16.23;10.83;;;13.50;99.90;;;;;;4145713;28;20274;-75
2021/05/12 01:12:27;;;;;;;16.43;10.27;;;13.40;99.90;;;;;;4148099;28;20862;-75
2021/05/12 01:14:29;;;;;;;14.33;10.40;;;13.40;99.90;;;;;;4156443;28;20266;-75
2021/05/12 01:16:30;;;;;;;15.67;10.20;;;13.40;99.90;;;;;;4160787;28;20241;-75
2021/05/12 01:18:31;;;;;;;16.10;10.13;;;13.40;99.90;;;;;;4159886;28;20211;-75
2021/05/12 01:20:33;;;;;;;15.60;10.47;;;13.40;99.90;;;;;;4156370;28;20608;-73
2021/05/12 01:22:35;;;;;;;14.90;9.27;;;13.40;99.90;;;;;;4160032;28;20269;-73
2021/05/12 01:24:37;;;;;;;19.83;11.50;;;13.40;99.90;;;;;;4156934;28;20211;-72
2021/05/12 01:26:38;;;;;;;20.60;11.80;;;13.40;99.90;;;;;;4152714;28;20211;-72
2021/05/12 01:28:41;;;;;;;18.13;11.33;;;13.50;99.90;;;;;;4156602;28;20679;-74
2021/05/12 01:30:53;;;;;;;19.23;11.57;;;13.50;99.90;;;;;;4162891;28;20210;-75
2021/05/12 01:32:58;;;;;;;18.20;11.63;;;13.50;99.90;;;;;;4152103;28;20219;-75
2021/05/12 01:35:05;;;;;;;17.77;10.37;;;13.40;99.90;;;;;;4157966;28;20214;-75
2021/05/12 01:37:06;;;;;;;17.83;10.83;;;13.40;99.90;;;;;;4161966;28;20215;-75
2021/05/12 01:39:09;;;;;;;13.87;9.77;;;13.40;99.90;;;;;;4147270;28;20216;-75
2021/05/12 01:41:10;;;;;;;17.00;10.33;;;13.40;99.90;;;;;;4145921;28;20235;-75
2021/05/12 01:43:12;;;;;;;15.33;10.67;;;13.40;99.90;;;;;;4158159;28;20582;-75
2021/05/12 01:45:14;;;;;;;21.23;12.67;;;13.40;99.90;;;;;;4156517;28;20610;-75
2021/05/12 01:47:16;;;;;;;18.10;11.47;;;13.40;99.90;;;;;;4153074;28;20216;-74
2021/05/12 01:49:17;;;;;;;20.27;13.10;;;13.40;99.90;;;;;;4158194;28;20246;-72
2021/05/12 01:51:19;;;;;;;19.53;12.37;;;13.40;99.90;;;;;;4161305;28;20234;-72
2021/05/12 01:53:20;;;;;;;18.27;11.60;;;13.40;99.90;;;;;;4152293;28;20259;-72
2021/05/12 01:55:22;;;;;;;21.87;13.60;;;13.40;99.90;;;;;;4153795;28;20229;-72
2021/05/12 01:57:23;;;;;;;22.57;13.13;;;13.40;99.90;;;;;;4154723;28;20204;-72
2021/05/12 01:59:24;;;;;;;18.10;12.70;;;13.40;99.90;;;;;;4153708;28;20216;-72
2021/05/12 02:01:29;;;;;;;16.07;10.83;;;13.40;99.90;;;;;;4161826;28;20223;-72
2021/05/12 02:03:30;;;;;;;16.93;11.50;;;13.30;99.90;;;;;;4155065;28;20202;-73
2021/05/12 02:05:33;;;;;;;15.37;10.87;;;13.30;99.90;;;;;;4152561;28;20210;-73
2021/05/12 02:07:34;;;;;;;17.53;11.23;;;13.30;99.90;;;;;;4158177;28;20210;-73
2021/05/12 02:09:40;;;;;;;17.90;11.90;;;13.30;99.90;;;;;;4159247;28;20230;-73
2021/05/12 02:11:42;;;;;;;19.60;11.83;;;13.30;99.90;;;;;;4158404;28;20703;-72
2021/05/12 02:13:43;;;;;;;17.70;11.07;;;13.40;99.90;;;;;;4153002;28;20282;-72
2021/05/12 02:15:45;;;;;;;15.77;10.73;;;13.30;99.90;;;;;;4155113;28;20706;-75
2021/05/12 02:17:47;;;;;;;17.63;11.43;;;13.30;99.90;;;;;;4162801;28;20203;-72
2021/05/12 02:19:48;;;;;;;22.57;12.57;;;13.30;99.90;;;;;;4159374;28;20211;-74
2021/05/12 02:21:49;;;;;;;18.27;11.83;;;13.30;99.90;;;;;;4159135;28;20219;-74
2021/05/12 02:23:50;;;;;;;18.40;11.50;;;13.30;99.90;;;;;;4162919;28;20567;-74
2021/05/12 02:25:52;;;;;;;20.17;11.30;;;13.30;99.90;;;;;;4164268;28;20211;-74
2021/05/12 02:27:54;;;;;;;17.63;11.20;;;13.30;99.90;;;;;;4162295;28;20213;-74
2021/05/12 02:30:00;;;;;;;17.00;10.67;;;13.30;99.90;;;;;;4161918;28;20218;-74
2021/05/12 02:32:02;;;;;;;15.87;10.27;;;13.40;99.90;;;;;;4163231;28;20292;-74
2021/05/12 02:34:03;;;;;;;14.67;10.53;;;13.40;99.90;;;;;;4158149;28;20207;-74
2021/05/12 02:36:05;;;;;;;15.37;10.50;;;13.40;99.90;;;;;;4163112;28;20207;-74
2021/05/12 02:38:07;;;;;;;15.73;10.47;;;13.40;99.90;;;;;;4157902;28;20211;-74
2021/05/12 02:40:10;;;;;;;14.60;9.97;;;13.40;99.90;;;;;;4158826;28;20654;-74
2021/05/12 02:42:12;;;;;;;15.80;10.77;;;13.40;99.90;;;;;;4156658;28;20247;-74
2021/05/12 02:44:14;;;;;;;14.83;10.10;;;13.40;99.90;;;;;;4163145;28;20214;-74
2021/05/12 02:46:15;;;;;;;15.40;10.07;;;13.40;99.90;;;;;;4158160;28;20213;-74
2021/05/12 02:48:16;;;;;;;16.97;10.87;;;13.40;99.90;;;;;;4157048;28;20569;-74
2021/05/12 02:50:17;;;;;;;16.10;10.47;;;13.40;99.90;;;;;;4156437;28;20211;-74
2021/05/12 02:52:19;;;;;;;16.00;10.80;;;13.40;99.90;;;;;;4157154;28;20642;-74
2021/05/12 02:54:20;;;;;;;14.97;10.40;;;13.40;99.90;;;;;;4159034;28;20215;-74
2021/05/12 02:56:21;;;;;;;19.27;10.63;;;13.40;99.90;;;;;;4156498;28;20262;-74
2021/05/12 02:58:22;;;;;;;16.60;10.80;;;13.40;99.90;;;;;;4158219;28;20218;-74
2021/05/12 03:00:27;;;;;;;19.73;12.17;;;13.50;99.90;;;;;;4157884;28;20557;-74
2021/05/12 03:02:28;;;;;;;19.70;12.57;;;13.50;99.90;;;;;;4156071;28;20235;-74
2021/05/12 03:04:29;;;;;;;20.80;12.40;;;13.50;99.90;;;;;;4160823;28;20226;-74
2021/05/12 03:06:31;;;;;;;22.13;13.10;;;13.50;99.90;;;;;;4162875;28;20351;-74
2021/05/12 03:08:32;;;;;;;22.23;14.40;;;13.50;99.90;;;;;;4163100;28;20226;-74
2021/05/12 03:10:34;;;;;;;23.63;13.33;;;13.60;99.90;;;;;;4163243;28;20280;-74
2021/05/12 03:12:35;;;;;;;19.60;12.90;;;13.50;99.90;;;;;;4154968;28;20239;-75
2021/05/12 03:14:36;;;;;;;20.40;13.43;;;13.50;99.90;;;;;;4164593;28;20268;-74
2021/05/12 03:16:38;;;;;;;18.40;12.83;;;13.60;99.90;;;;;;4164146;28;20207;-74
2021/05/12 03:18:39;;;;;;;19.30;12.93;;;13.60;99.90;;;;;;4158887;28;20229;-74
2021/05/12 03:20:41;;;;;;;19.33;13.07;;;13.50;99.90;;;;;;4160494;28;20257;-74
2021/05/12 03:22:42;;;;;;;20.70;13.57;;;13.50;99.90;;;;;;4153630;28;20226;-74
2021/05/12 03:24:44;;;;;;;23.97;14.20;;;13.60;99.90;;;;;;4158162;28;20204;-74
2021/05/12 03:26:45;;;;;;;17.03;12.23;;;13.60;99.90;;;;;;4158307;28;20203;-74
2021/05/12 03:28:46;;;;;;;17.17;11.93;;;13.60;99.90;;;;;;4157978;28;20210;-74
2021/05/12 03:30:47;;;;;;;18.97;11.73;;;13.50;99.90;;;;;;4163686;28;20203;-74
2021/05/12 03:32:50;;;;;;;15.93;10.87;;;13.60;99.90;;;;;;4161202;28;20219;-75
2021/05/12 03:34:51;;;;;;;18.20;11.97;;;13.50;99.90;;;;;;4156659;28;20207;-75
2021/05/12 03:36:53;;;;;;;15.20;10.80;;;13.50;99.90;;;;;;4163633;28;20211;-74
2021/05/12 03:38:54;;;;;;;18.83;12.70;;;13.60;99.90;;;;;;4157851;28;20207;-75
2021/05/12 03:40:55;;;;;;;16.70;10.73;;;13.50;99.90;;;;;;4162600;28;20238;-74
2021/05/12 03:42:58;;;;;;;16.77;10.80;;;13.60;99.90;;;;;;4156688;28;20222;-74
2021/05/12 03:45:00;;;;;;;15.13;10.43;;;13.60;99.90;;;;;;4161507;28;20669;-74
2021/05/12 03:47:01;;;;;;;14.80;10.27;;;13.60;99.90;;;;;;4160707;28;20298;-75
2021/05/12 03:49:03;;;;;;;13.43;9.67;;;13.60;99.90;;;;;;4154475;28;20207;-75
2021/05/12 03:51:05;;;;;;;13.33;9.03;;;13.60;99.90;;;;;;4157607;28;20217;-75
2021/05/12 03:53:06;;;;;;;16.20;11.23;;;13.60;99.90;;;;;;4156473;28;20227;-75
2021/05/12 03:55:09;;;;;;;14.90;10.07;;;13.60;99.90;;;;;;4158113;28;20203;-75
2021/05/12 03:57:10;;;;;;;13.63;9.40;;;13.60;99.90;;;;;;4163062;28;20231;-74
2021/05/12 03:59:12;;;;;;;14.93;10.07;;;13.60;99.90;;;;;;4161809;28;20222;-75
2021/05/12 04:01:13;;;;;;;16.10;10.40;;;13.60;99.90;;;;;;4162022;28;20226;-74
2021/05/12 04:03:14;;;;;;;16.60;10.23;;;13.60;99.90;;;;;;4161613;28;20214;-74
2021/05/12 04:05:18;;;;;;;13.97;10.10;;;13.70;99.90;;;;;;4163003;28;20439;-75
2021/05/12 04:07:19;;;;;;;15.97;10.23;;;13.60;99.90;;;;;;4162527;28;20630;-74
2021/05/12 04:09:20;;;;;;;16.77;11.47;;;13.70;99.90;;;;;;4155767;28;20211;-74
2021/05/12 04:11:21;;;;;;;15.70;10.87;;;13.60;99.90;;;;;;4162752;28;20223;-74
2021/05/12 04:13:23;;;;;;;15.57;10.70;;;13.70;99.90;;;;;;4161561;28;20261;-75
2021/05/12 04:15:25;;;;;;;14.53;10.40;;;13.70;99.90;;;;;;4162794;28;20558;-74
2021/05/12 04:17:26;;;;;;;15.90;11.27;;;13.70;99.90;;;;;;4163089;28;20215;-75
2021/05/12 04:19:28;;;;;;;16.80;11.37;;;13.70;99.90;;;;;;4160252;28;20211;-75
2021/05/12 04:21:33;;;;;;;15.07;10.70;;;13.60;99.90;;;;;;4161811;28;20227;-75
2021/05/12 04:23:34;;;;;;;15.07;10.93;;;13.60;99.90;;;;;;4159274;28;20203;-74
2021/05/12 04:25:35;;;;;;;15.17;10.80;;;13.70;99.90;;;;;;4161569;28;20203;-74
2021/05/12 04:27:36;;;;;;;15.53;10.87;;;13.70;99.90;;;;;;4152635;28;20216;-75
2021/05/12 04:29:38;;;;;;;15.57;11.00;;;13.70;99.90;;;;;;4160033;28;20281;-75
2021/05/12 04:31:39;;;;;;;16.57;11.40;;;13.70;99.90;;;;;;4161320;28;20351;-75
2021/05/12 04:33:40;;;;;;;17.60;11.50;;;13.70;99.90;;;;;;4161762;28;20227;-75
2021/05/12 04:35:45;;;;;;;14.37;10.60;;;13.70;99.90;;;;;;4162905;28;20213;-75
2021/05/12 04:37:48;;;;;;;17.80;11.50;;;13.70;99.90;;;;;;4149500;28;20311;-75
2021/05/12 04:39:49;;;;;;;14.03;10.07;;;13.70;99.90;;;;;;4146569;28;20221;-75
2021/05/12 04:41:50;;;;;;;16.00;11.07;;;13.70;99.90;;;;;;4147584;28;20246;-75
2021/05/12 04:43:54;;;;;;;16.73;10.87;;;13.80;99.90;;;;;;4161470;28;20207;-75
2021/05/12 04:45:55;;;;;;;15.87;10.83;;;13.80;99.90;;;;;;4159257;28;20231;-74
2021/05/12 04:47:56;;;;;;;16.20;10.97;;;13.80;99.90;;;;;;4157442;28;20714;-75
2021/05/12 04:49:58;;;;;;;15.33;10.47;;;13.80;99.90;;;;;;4158256;28;20211;-74
2021/05/12 04:51:59;;;;;;;14.40;9.90;;;13.90;99.90;;;;;;4156515;28;20227;-75
2021/05/12 04:54:01;;;;;;;14.27;10.43;;;13.90;99.90;;;;;;4155883;28;20238;-75
2021/05/12 04:56:02;;;;;;;15.73;10.67;;;13.90;99.90;;;;;;4160313;28;20257;-75
2021/05/12 04:58:04;;;;;;;18.83;11.40;;;14.00;99.90;;;;;;4160449;28;20588;-75
2021/05/12 05:00:06;;;;;;;14.20;10.23;;;14.00;99.90;;;;;;4160327;28;20605;-74
2021/05/12 05:02:10;;;;;;;14.90;10.17;;;14.10;99.90;;;;;;4154191;28;20231;-74
2021/05/12 05:04:12;;;;;;;12.20;9.17;;;14.10;99.90;;;;;;4159388;28;20211;-74
2021/05/12 05:06:13;;;;;;;14.70;9.73;;;14.10;99.90;;;;;;4161299;28;20258;-74
2021/05/12 05:08:15;;;;;;;13.30;9.57;;;14.10;99.90;;;;;;4160675;28;20211;-74
2021/05/12 05:10:17;;;;;;;14.93;10.10;;;14.10;99.90;;;;;;4160757;28;20217;-74
2021/05/12 05:12:18;;;;;;;13.53;9.53;;;14.10;99.90;;;;;;4159159;28;20251;-74
2021/05/12 05:14:19;;;;;;;14.10;10.27;;;14.00;99.90;;;;;;4157385;28;20211;-74
2021/05/12 05:16:20;;;;;;;14.53;10.37;;;14.00;99.90;;;;;;4156239;28;20222;-74
2021/05/12 05:18:22;;;;;;;15.00;10.03;;;14.00;99.90;;;;;;4153256;28;20224;-74
2021/05/12 05:20:25;;;;;;;13.97;10.17;;;14.00;99.90;;;;;;4155502;28;20261;-74
2021/05/12 05:22:28;;;;;;;16.87;11.17;;;14.00;99.90;;;;;;4155979;28;20306;-74
2021/05/12 05:24:30;;;;;;;16.53;10.77;;;14.00;99.90;;;;;;4153352;28;20218;-72
2021/05/12 05:26:32;;;;;;;13.83;9.90;;;14.00;99.90;;;;;;4157743;28;20654;-70
2021/05/12 05:28:33;;;;;;;14.83;10.50;;;14.00;99.90;;;;;;4155968;28;20644;-73
2021/05/12 05:30:34;;;;;;;14.70;9.70;;;14.00;99.90;;;;;;4155772;28;20215;-73
2021/05/12 05:32:35;;;;;;;13.53;10.00;;;14.00;99.90;;;;;;4155654;28;20699;-78
2021/05/12 05:34:37;;;;;;;15.27;10.03;;;14.10;99.90;;;;;;4151829;28;20207;-75
2021/05/12 05:36:39;;;;;;;24.47;17.20;;;14.10;99.90;;;;;;4157499;28;20226;-74
2021/05/12 05:38:41;;;;;;;58.63;36.33;;;14.10;99.90;;;;;;4156195;28;20203;-74
2021/05/12 05:40:42;;;;;;;84.13;49.13;;;14.10;99.90;;;;;;4153238;28;20572;-73
2021/05/12 05:42:44;;;;;;;53.03;31.97;;;14.10;99.90;;;;;;4153210;28;20239;-73
2021/05/12 05:44:46;;;;;;;37.77;23.10;;;14.10;99.90;;;;;;4156227;28;20672;-73
2021/05/12 05:46:48;;;;;;;26.83;17.97;;;14.10;99.90;;;;;;4154485;28;20213;-74
2021/05/12 05:48:49;;;;;;;25.23;14.83;;;14.10;99.90;;;;;;4153905;28;20661;-73
2021/05/12 05:50:50;;;;;;;20.37;13.93;;;14.20;99.90;;;;;;4155861;28;20208;-73
2021/05/12 05:52:53;;;;;;;19.17;12.53;;;14.10;99.90;;;;;;4148584;28;20232;-73
2021/05/12 05:54:54;;;;;;;16.07;11.10;;;14.10;99.90;;;;;;4154532;28;20633;-73
2021/05/12 05:57:02;;;;;;;16.37;10.83;;;14.10;99.90;;;;;;4156383;28;20208;-73
2021/05/12 05:59:04;;;;;;;16.23;11.60;;;14.10;99.90;;;;;;4154165;28;20218;-73
2021/05/12 06:01:05;;;;;;;16.30;11.70;;;14.10;99.90;;;;;;4152997;28;20588;-73
2021/05/12 06:03:06;;;;;;;14.93;10.20;;;14.10;99.90;;;;;;4151248;28;20285;-73
2021/05/12 06:05:08;;;;;;;17.13;11.70;;;14.10;99.90;;;;;;4153889;28;20592;-73
2021/05/12 06:07:10;;;;;;;15.73;11.53;;;14.10;99.90;;;;;;4145076;28;20604;-73
2021/05/12 06:09:11;;;;;;;15.33;10.70;;;14.20;99.90;;;;;;4153573;28;20220;-73
2021/05/12 06:11:12;;;;;;;16.13;10.70;;;14.10;99.90;;;;;;4154194;28;20259;-73
2021/05/12 06:13:13;;;;;;;15.43;10.90;;;14.10;99.90;;;;;;4153718;28;20227;-73
2021/05/12 06:15:19;;;;;;;17.30;11.43;;;14.10;99.90;;;;;;4148196;28;20207;-73
2021/05/12 06:17:20;;;;;;;16.20;10.87;;;14.10;99.90;;;;;;4154533;28;20211;-73
2021/05/12 06:19:22;;;;;;;15.60;11.33;;;14.10;99.90;;;;;;4150693;28;20579;-73
2021/05/12 06:21:25;;;;;;;15.47;10.57;;;14.10;99.90;;;;;;4153342;28;20624;-73
2021/05/12 06:23:26;;;;;;;15.47;10.63;;;14.10;99.90;;;;;;4147305;28;20222;-73
2021/05/12 06:25:27;;;;;;;17.60;11.43;;;14.10;99.90;;;;;;4158518;28;20224;-73
2021/05/12 06:27:29;;;;;;;19.67;11.63;;;14.20;99.90;;;;;;4157183;28;20273;-73
2021/05/12 06:29:30;;;;;;;17.07;11.80;;;14.20;99.90;;;;;;4153292;28;20218;-73
2021/05/12 06:31:32;;;;;;;19.67;11.93;;;14.20;99.90;;;;;;4155589;28;20715;-73
2021/05/12 06:33:33;;;;;;;17.13;11.57;;;14.20;99.90;;;;;;4155420;28;20274;-73
2021/05/12 06:35:35;;;;;;;18.47;12.27;;;14.20;99.90;;;;;;4162368;28;20222;-73
2021/05/12 06:37:36;;;;;;;20.30;12.47;;;14.30;99.90;;;;;;4154650;28;20303;-73
2021/05/12 06:39:37;;;;;;;24.07;13.23;;;14.30;99.90;;;;;;4153891;28;20214;-73
2021/05/12 06:41:38;;;;;;;25.90;14.37;;;14.30;99.90;;;;;;4153299;28;20644;-73
2021/05/12 06:43:40;;;;;;;25.93;13.93;;;14.30;99.90;;;;;;4157667;28;20214;-73
2021/05/12 06:45:41;;;;;;;23.50;13.23;;;14.20;99.90;;;;;;4154917;28;20296;-73
2021/05/12 06:47:43;;;;;;;18.97;11.73;;;14.30;99.90;;;;;;4159130;28;20673;-73
2021/05/12 06:49:44;;;;;;;18.47;12.13;;;14.30;99.90;;;;;;4157796;28;20212;-73
2021/05/12 06:51:45;;;;;;;18.67;13.10;;;14.30;99.90;;;;;;4153771;28;20240;-73
2021/05/12 06:53:47;;;;;;;22.33;13.63;;;14.30;99.90;;;;;;4158651;28;20263;-73
2021/05/12 06:55:48;;;;;;;20.73;13.17;;;14.30;99.90;;;;;;4154556;28;20223;-72
2021/05/12 06:57:50;;;;;;;61.57;37.30;;;14.30;99.90;;;;;;4160030;28;20243;-72
2021/05/12 06:59:51;;;;;;;87.90;50.80;;;14.20;99.90;;;;;;4156631;28;20257;-72
2021/05/12 07:01:52;;;;;;;38.70;24.80;;;14.20;99.90;;;;;;4145954;28;20236;-73
2021/05/12 07:03:54;;;;;;;29.33;19.90;;;14.10;99.90;;;;;;4156475;28;20208;-71
2021/05/12 07:05:55;;;;;;;24.63;16.03;;;14.10;99.90;;;;;;4161418;28;20207;-72
2021/05/12 07:07:57;;;;;;;23.23;14.40;;;14.00;99.90;;;;;;4160054;28;20677;-71
2021/05/12 07:09:58;;;;;;;18.53;12.07;;;13.90;99.90;;;;;;4149700;28;20216;-71
2021/05/12 07:11:59;;;;;;;19.43;12.60;;;13.90;99.90;;;;;;4156457;28;20601;-73
2021/05/12 07:14:01;;;;;;;18.87;12.63;;;13.90;99.90;;;;;;4171152;28;20227;-74
2021/05/12 07:16:04;;;;;;;26.43;13.60;;;13.90;99.90;;;;;;4162827;28;20234;-72
2021/05/12 07:18:05;;;;;;;17.10;11.13;;;13.90;99.90;;;;;;4155288;28;20923;-72
2021/05/12 07:20:09;;;;;;;19.80;11.73;;;13.90;99.90;;;;;;4162419;28;20214;-74
2021/05/12 07:22:10;;;;;;;18.93;11.77;;;13.90;99.90;;;;;;4165112;28;20292;-73
2021/05/12 07:24:11;;;;;;;21.13;12.80;;;13.90;99.90;;;;;;4162414;28;20241;-73
2021/05/12 07:26:13;;;;;;;21.00;12.30;;;13.90;99.90;;;;;;4167363;28;20587;-73
2021/05/12 07:28:15;;;;;;;17.43;11.07;;;14.00;99.90;;;;;;4156713;28;20740;-72
2021/05/12 07:30:17;;;;;;;18.67;11.07;;;14.00;99.90;;;;;;4165360;28;20278;-72
2021/05/12 07:32:18;;;;;;;16.77;11.00;;;14.00;99.90;;;;;;4157405;28;20227;-73
2021/05/12 07:34:19;;;;;;;18.33;10.80;;;14.00;99.90;;;;;;4161263;28;20613;-73
2021/05/12 07:36:21;;;;;;;17.03;10.40;;;13.90;99.90;;;;;;4161033;28;20220;-73
2021/05/12 07:38:23;;;;;;;14.67;10.43;;;14.00;99.90;;;;;;4155655;28;20212;-73
2021/05/12 07:40:25;;;;;;;15.20;10.30;;;14.00;99.90;;;;;;4161145;28;20258;-74
2021/05/12 07:42:27;;;;;;;17.00;11.00;;;14.00;99.90;;;;;;4175228;22;20309;-76
2021/05/12 07:44:28;;;;;;;18.33;10.83;;;14.00;99.90;;;;;;4159423;28;20273;-77
2021/05/12 07:46:30;;;;;;;16.40;10.60;;;14.00;99.90;;;;;;4158585;28;20652;-76
2021/05/12 07:48:31;;;;;;;18.40;11.30;;;14.00;99.90;;;;;;4156880;28;20214;-76
2021/05/12 07:50:32;;;;;;;21.97;12.60;;;14.00;99.90;;;;;;4160597;28;20215;-76
2021/05/12 07:52:34;;;;;;;21.23;12.03;;;14.10;99.90;;;;;;4149418;28;20653;-76
2021/05/12 07:54:36;;;;;;;27.10;13.90;;;14.00;99.90;;;;;;4145404;28;20212;-76
2021/05/12 07:56:37;;;;;;;19.30;11.87;;;14.10;99.90;;;;;;4144908;28;20219;-76
2021/05/12 07:58:38;;;;;;;20.47;12.40;;;14.10;99.90;;;;;;4149298;28;20447;-76
2021/05/12 08:00:41;;;;;;;21.73;12.57;;;14.10;99.90;;;;;;4147768;28;20211;-76
2021/05/12 08:02:43;;;;;;;22.27;12.67;;;14.00;99.90;;;;;;4151064;28;20655;-76
2021/05/12 08:04:44;;;;;;;20.97;12.97;;;14.00;99.90;;;;;;4149657;28;20218;-76
2021/05/12 08:06:45;;;;;;;19.57;12.73;;;14.10;99.90;;;;;;4151768;28;20598;-76
2021/05/12 08:08:48;;;;;;;20.77;13.17;;;14.10;99.90;;;;;;4153387;28;20241;-77
2021/05/12 08:10:50;;;;;;;22.10;14.47;;;14.00;99.90;;;;;;4143620;28;20235;-77
2021/05/12 08:12:51;;;;;;;22.07;15.23;;;14.00;99.90;;;;;;4144168;28;20305;-77
2021/05/12 08:14:53;;;;;;;23.43;14.50;;;14.00;99.90;;;;;;4149700;28;20224;-78
2021/05/12 08:16:54;;;;;;;24.17;16.43;;;14.10;99.90;;;;;;4149051;28;20671;-77
2021/05/12 08:18:56;;;;;;;28.47;17.53;;;14.00;99.90;;;;;;4148500;28;20211;-76
2021/05/12 08:20:57;;;;;;;25.70;16.93;;;14.10;99.90;;;;;;4149458;28;20231;-77
2021/05/12 08:22:58;;;;;;;26.63;17.77;;;14.10;99.90;;;;;;4149764;28;20604;-77
2021/05/12 08:25:01;;;;;;;27.20;18.00;;;14.00;99.90;;;;;;4146488;28;20220;-76
2021/05/12 08:27:05;;;;;;;26.63;17.87;;;14.10;99.90;;;;;;4159739;28;20577;-77
2021/05/12 08:29:07;;;;;;;26.17;17.97;;;14.10;99.90;;;;;;4144621;28;20223;-77
2021/05/12 08:31:09;;;;;;;28.20;18.03;;;14.10;99.90;;;;;;4156063;28;20211;-77
2021/05/12 08:33:10;;;;;;;27.43;17.50;;;14.10;99.90;;;;;;4149338;28;20371;-77
2021/05/12 08:35:12;;;;;;;29.27;18.10;;;14.20;99.90;;;;;;4151115;28;20208;-78
2021/05/12 08:37:13;;;;;;;27.93;17.67;;;14.20;99.90;;;;;;4155916;28;20211;-77
2021/05/12 08:39:14;;;;;;;25.87;17.23;;;14.10;99.90;;;;;;4151374;28;20727;-77
2021/05/12 08:41:18;;;;;;;24.37;15.47;;;14.10;99.90;;;;;;4150045;28;20582;-77
2021/05/12 08:43:21;;;;;;;24.23;16.07;;;14.00;99.90;;;;;;4153168;28;20251;-79
2021/05/12 08:45:24;;;;;;;134.47;68.83;;;13.90;99.90;;;;;;4156942;28;20208;-82
2021/05/12 08:47:25;;;;;;;62.73;36.10;;;13.90;99.90;;;;;;4154151;28;20207;-74
2021/05/12 08:49:28;;;;;;;25.77;16.60;;;13.90;99.90;;;;;;4144441;28;20211;-74
2021/05/12 08:51:29;;;;;;;23.90;14.67;;;13.80;99.90;;;;;;4152444;28;20211;-74
2021/05/12 08:53:31;;;;;;;20.10;13.23;;;13.80;99.90;;;;;;4153004;28;20288;-74
2021/05/12 08:55:34;;;;;;;20.83;13.43;;;13.70;99.90;;;;;;4151351;28;20203;-74
2021/05/12 08:57:36;;;;;;;20.57;13.07;;;13.70;99.90;;;;;;4150925;28;20207;-75
2021/05/12 08:59:37;;;;;;;20.30;13.87;;;13.60;99.90;;;;;;4151324;28;20702;-74
2021/05/12 09:01:38;;;;;;;24.20;14.27;;;13.60;99.90;;;;;;4151446;28;20220;-75
2021/05/12 09:03:41;;;;;;;24.17;14.07;;;13.60;99.90;;;;;;4151695;28;20212;-74
2021/05/12 09:05:43;;;;;;;26.83;14.40;;;13.60;99.90;;;;;;4148561;28;20215;-75
2021/05/12 09:07:45;;;;;;;23.37;14.63;;;13.60;99.90;;;;;;4149100;28;20242;-74
2021/05/12 09:09:46;;;;;;;23.03;14.63;;;13.60;99.90;;;;;;4150319;28;20215;-74
2021/05/12 09:11:48;;;;;;;22.80;13.83;;;13.60;99.90;;;;;;4149394;28;20231;-75
2021/05/12 09:13:50;;;;;;;21.63;13.87;;;13.60;99.90;;;;;;4154949;28;20226;-75
2021/05/12 09:15:52;;;;;;;24.07;14.83;;;13.50;99.90;;;;;;4152800;28;20214;-74
2021/05/12 09:17:55;;;;;;;23.30;14.17;;;13.60;99.90;;;;;;4149944;28;20227;-75
2021/05/12 09:19:56;;;;;;;23.27;14.33;;;13.60;99.90;;;;;;4148569;28;20212;-76
2021/05/12 09:22:00;;;;;;;24.03;14.57;;;13.60;99.90;;;;;;4148120;28;20953;-75
2021/05/12 09:24:02;;;;;;;21.97;13.40;;;13.60;99.90;;;;;;4146963;28;20239;-75
2021/05/12 09:26:04;;;;;;;23.87;14.27;;;13.60;99.90;;;;;;4152090;28;20218;-76
2021/05/12 09:28:13;;;;;;;22.77;14.23;;;13.70;99.90;;;;;;4149829;28;20226;-76
2021/05/12 09:30:21;;;;;;;24.63;14.87;;;13.70;99.90;;;;;;4148563;28;20208;-74
2021/05/12 09:32:22;;;;;;;25.47;15.27;;;13.70;99.90;;;;;;4146042;28;20230;-76
2021/05/12 09:34:24;;;;;;;23.50;15.10;;;13.80;99.90;;;;;;4146122;28;20760;-75
2021/05/12 09:36:29;;;;;;;25.67;15.27;;;13.70;99.90;;;;;;4148367;28;20641;-75
2021/05/12 09:38:32;;;;;;;25.47;15.67;;;13.70;99.90;;;;;;4149834;28;20221;-75
2021/05/12 09:40:33;;;;;;;25.40;16.33;;;13.80;99.90;;;;;;4153014;28;20269;-75
2021/05/12 09:42:36;;;;;;;29.43;16.90;;;13.70;99.90;;;;;;4150620;28;20245;-75
2021/05/12 09:44:38;;;;;;;26.73;16.97;;;13.70;99.90;;;;;;4149950;28;20329;-75
2021/05/12 09:46:41;;;;;;;27.23;16.40;;;13.70;99.90;;;;;;4144767;28;20211;-75
2021/05/12 09:48:47;;;;;;;30.57;18.17;;;13.70;99.90;;;;;;4150965;28;20254;-75
2021/05/12 09:50:48;;;;;;;25.77;16.37;;;13.70;99.90;;;;;;4151832;28;20310;-76
2021/05/12 09:52:52;;;;;;;28.33;16.50;;;13.60;99.90;;;;;;4157621;28;20746;-75
2021/05/12 09:55:00;;;;;;;27.97;16.77;;;13.70;99.90;;;;;;4157065;28;20290;-75
2021/05/12 09:57:02;;;;;;;29.53;17.77;;;13.70;99.90;;;;;;4149864;28;20636;-75
2021/05/12 09:59:12;;;;;;;29.40;18.07;;;13.70;99.90;;;;;;4147123;28;20668;-75
2021/05/12 10:01:36;;;;;;;28.87;18.13;;;13.70;99.90;;;;;;4150544;28;20215;-74
2021/05/12 10:03:38;;;;;;;29.07;16.93;;;13.70;99.90;;;;;;4148425;28;20211;-75
2021/05/12 10:05:51;;;;;;;35.30;21.87;;;13.70;99.90;;;;;;4156465;28;20210;-80
2021/05/12 10:07:53;;;;;;;45.57;26.90;;;13.70;99.90;;;;;;4155214;28;20293;-75
2021/05/12 10:09:56;;;;;;;36.10;20.90;;;13.70;99.90;;;;;;4148406;28;20277;-75
2021/05/12 10:12:09;;;;;;;29.60;17.97;;;13.70;99.90;;;;;;4150595;28;20712;-75
2021/05/12 10:14:10;;;;;;;29.20;17.10;;;13.60;99.90;;;;;;4152440;28;20222;-75
2021/05/12 10:16:12;;;;;;;29.10;17.07;;;13.60;99.90;;;;;;4153678;28;20661;-75
2021/05/12 10:18:14;;;;;;;27.50;16.87;;;13.60;99.90;;;;;;4154846;28;20724;-75
2021/05/12 10:20:16;;;;;;;26.13;16.60;;;13.50;99.90;;;;;;4154253;28;20211;-75